createdAt,value
2022-12-14T00:00:46.724Z,-0.80
2022-12-14T00:02:48.480Z,-0.80
2022-12-14T00:04:50.197Z,-0.80
2022-12-14T00:06:52.497Z,-0.80
2022-12-14T00:08:54.873Z,-0.80
2022-12-14T00:10:58.352Z,-0.80
2022-12-14T00:13:00.169Z,-0.90
2022-12-14T00:15:02.184Z,-0.80
2022-12-14T00:17:04.066Z,-0.90
2022-12-14T00:19:05.838Z,-0.90
2022-12-14T00:21:09.038Z,-0.90
2022-12-14T00:23:11.038Z,-0.80
2022-12-14T00:25:12.672Z,-0.90
2022-12-14T00:27:14.357Z,-0.80
2022-12-14T00:29:16.152Z,-0.80
2022-12-14T00:31:18.047Z,-0.80
2022-12-14T00:33:19.659Z,-0.80
2022-12-14T00:35:21.348Z,-0.80
2022-12-14T00:37:22.971Z,-0.80
2022-12-14T00:39:24.846Z,-0.80
2022-12-14T00:41:26.500Z,-0.80
2022-12-14T00:43:28.086Z,-0.80
2022-12-14T00:45:29.670Z,-0.90
2022-12-14T00:47:34.895Z,-0.80
2022-12-14T00:49:39.129Z,-0.80
2022-12-14T00:51:40.720Z,-0.70
2022-12-14T00:53:43.716Z,-0.70
2022-12-14T00:55:49.491Z,-0.80
2022-12-14T00:57:51.799Z,-0.80
2022-12-14T00:59:53.507Z,-0.80
2022-12-14T01:01:55.167Z,-0.70
2022-12-14T01:04:17.170Z,-0.70
2022-12-14T01:06:20.332Z,-0.70
2022-12-14T01:08:22.080Z,-0.70
2022-12-14T01:10:23.987Z,-0.80
2022-12-14T01:12:25.637Z,-0.80
2022-12-14T01:14:27.301Z,-0.80
2022-12-14T01:16:29.023Z,-0.80
2022-12-14T01:18:33.104Z,-0.90
2022-12-14T01:20:34.792Z,-0.80
2022-12-14T01:22:36.917Z,-0.80
2022-12-14T01:24:38.594Z,-0.60
2022-12-14T01:26:40.192Z,-0.70
2022-12-14T01:28:41.950Z,-0.70
2022-12-14T01:30:43.606Z,-0.70
2022-12-14T01:32:46.048Z,-0.70
2022-12-14T01:34:48.138Z,-0.70
2022-12-14T01:36:49.708Z,-0.60
2022-12-14T01:38:55.519Z,-0.70
2022-12-14T01:40:57.684Z,-0.60
2022-12-14T01:42:59.337Z,-0.70
2022-12-14T01:45:00.974Z,-0.70
2022-12-14T01:47:12.107Z,-0.80
2022-12-14T01:49:37.604Z,-0.70
2022-12-14T01:51:40.413Z,-0.70
2022-12-14T01:53:42.041Z,-0.70
2022-12-14T01:55:48.853Z,-0.80
2022-12-14T01:58:00.167Z,-0.70
2022-12-14T02:00:06.918Z,-0.60
2022-12-14T02:02:10.288Z,-0.70
2022-12-14T02:04:12.824Z,-0.60
2022-12-14T02:06:17.676Z,-0.60
2022-12-14T02:08:20.922Z,-0.70
2022-12-14T02:10:23.677Z,-0.70
2022-12-14T02:12:38.216Z,-0.70
2022-12-14T02:14:39.904Z,-0.70
2022-12-14T02:16:41.627Z,-0.70
2022-12-14T02:18:43.268Z,-0.70
2022-12-14T02:20:54.295Z,-0.70
2022-12-14T02:23:02.103Z,-0.70
2022-12-14T02:25:22.681Z,-0.70
2022-12-14T02:27:43.332Z,-0.70
2022-12-14T02:29:47.988Z,-0.60
2022-12-14T02:32:08.530Z,-0.70
2022-12-14T02:34:10.083Z,-0.70
2022-12-14T02:36:14.677Z,-0.60
2022-12-14T02:38:19.361Z,-0.60
2022-12-14T02:40:20.965Z,-0.60
2022-12-14T02:42:42.190Z,-0.60
2022-12-14T02:45:08.899Z,-0.60
2022-12-14T02:47:26.119Z,-0.60
2022-12-14T02:49:27.682Z,-0.60
2022-12-14T02:51:29.262Z,-0.70
2022-12-14T02:53:31.088Z,-0.70
2022-12-14T02:55:38.696Z,-0.70
2022-12-14T02:57:59.811Z,-0.50
2022-12-14T03:00:04.425Z,-0.50
2022-12-14T03:02:06.731Z,-0.50
2022-12-14T03:04:08.519Z,-0.60
2022-12-14T03:06:14.627Z,-0.60
2022-12-14T03:08:16.675Z,-0.60
2022-12-14T03:10:21.353Z,-0.50
2022-12-14T03:12:22.915Z,-0.50
2022-12-14T03:14:30.642Z,-0.50
2022-12-14T03:16:52.513Z,-0.50
2022-12-14T03:18:58.128Z,-0.40
2022-12-14T03:21:00.786Z,-0.50
2022-12-14T03:23:08.232Z,-0.40
2022-12-14T03:25:14.421Z,-0.40
2022-12-14T03:27:31.296Z,-0.50
2022-12-14T03:29:35.316Z,-0.50
2022-12-14T03:31:43.226Z,-0.50
2022-12-14T03:33:51.950Z,-0.50
2022-12-14T03:36:02.622Z,-0.60
2022-12-14T03:38:08.268Z,-0.70
2022-12-14T03:40:11.305Z,-0.60
2022-12-14T03:42:12.899Z,-0.60
2022-12-14T03:44:29.595Z,-0.60
2022-12-14T03:46:31.898Z,-0.60
2022-12-14T03:48:36.263Z,-0.60
2022-12-14T03:50:52.877Z,-0.60
2022-12-14T03:53:14.789Z,-0.60
2022-12-14T03:55:22.181Z,-0.50
2022-12-14T03:57:23.745Z,-0.60
2022-12-14T03:59:28.323Z,-0.60
2022-12-14T04:01:43.954Z,-0.60
2022-12-14T04:03:49.049Z,-0.70
2022-12-14T04:06:05.854Z,-0.80
2022-12-14T04:08:14.141Z,-0.80
2022-12-14T04:10:41.730Z,-0.70
2022-12-14T04:13:02.298Z,-0.70
2022-12-14T04:15:25.321Z,-0.60
2022-12-14T04:17:48.560Z,-0.70
2022-12-14T04:20:08.754Z,-0.70
2022-12-14T04:22:15.998Z,-0.60
2022-12-14T04:24:36.526Z,-0.60
2022-12-14T04:26:42.574Z,-0.60
2022-12-14T04:29:05.102Z,-0.70
2022-12-14T04:31:10.582Z,-0.70
2022-12-14T04:33:41.901Z,-0.60
2022-12-14T04:35:43.636Z,-0.60
2022-12-14T04:37:48.828Z,-0.60
2022-12-14T04:39:53.673Z,-0.50
2022-12-14T04:41:56.546Z,-0.60
2022-12-14T04:44:00.370Z,-0.70
2022-12-14T04:46:05.112Z,-0.60
2022-12-14T04:48:21.845Z,-0.50
2022-12-14T04:50:26.878Z,-0.50
2022-12-14T04:52:32.641Z,-0.50
2022-12-14T04:54:34.223Z,-0.50
2022-12-14T04:56:46.176Z,-0.60
2022-12-14T04:58:48.237Z,-0.40
2022-12-14T05:00:52.853Z,-0.50
2022-12-14T05:03:04.590Z,-0.40
2022-12-14T05:05:24.163Z,-0.40
2022-12-14T05:07:31.688Z,-0.40
2022-12-14T05:09:38.117Z,-0.40
2022-12-14T05:11:54.072Z,-0.40
2022-12-14T05:13:56.326Z,-0.40
2022-12-14T05:15:58.661Z,-0.40
2022-12-14T05:18:03.934Z,-0.50
2022-12-14T05:20:06.276Z,-0.40
2022-12-14T05:22:08.201Z,-0.40
2022-12-14T05:24:09.878Z,-0.30
2022-12-14T05:26:11.482Z,-0.30
2022-12-14T05:28:13.153Z,-0.30
2022-12-14T05:30:14.879Z,-0.30
2022-12-14T05:32:16.662Z,-0.30
2022-12-14T05:34:18.533Z,-0.30
2022-12-14T05:36:20.147Z,-0.40
2022-12-14T05:38:22.125Z,-0.40
2022-12-14T05:40:23.784Z,-0.40
2022-12-14T05:42:41.050Z,-0.30
2022-12-14T05:44:46.402Z,-0.30
2022-12-14T05:46:47.976Z,-0.20
2022-12-14T05:48:49.767Z,-0.10
2022-12-14T05:50:51.748Z,-0.20
2022-12-14T05:52:53.559Z,-0.20
2022-12-14T05:54:58.271Z,-0.20
2022-12-14T05:57:04.038Z,-0.20
2022-12-14T05:59:05.764Z,-0.30
2022-12-14T06:01:12.631Z,-0.30
2022-12-14T06:03:17.310Z,-0.30
2022-12-14T06:05:19.255Z,-0.30
2022-12-14T06:07:26.075Z,-0.20
2022-12-14T06:09:29.264Z,-0.20
2022-12-14T06:11:30.982Z,-0.10
2022-12-14T06:13:32.604Z,0.00
2022-12-14T06:15:34.324Z,-0.20
2022-12-14T06:17:36.072Z,0.00
2022-12-14T06:19:37.769Z,0.00
2022-12-14T06:21:40.374Z,0.00
2022-12-14T06:23:42.248Z,0.00
2022-12-14T06:25:44.092Z,-0.20
2022-12-14T06:27:45.820Z,-0.10
2022-12-14T06:29:49.481Z,-0.10
2022-12-14T06:31:51.176Z,-0.10
2022-12-14T06:33:53.253Z,-0.10
2022-12-14T06:35:55.076Z,0.00
2022-12-14T06:37:56.682Z,-0.10
2022-12-14T06:39:58.589Z,-0.20
2022-12-14T06:42:00.200Z,-0.20
2022-12-14T06:44:05.425Z,-0.20
2022-12-14T06:46:15.161Z,-0.20
2022-12-14T06:48:17.479Z,-0.20
2022-12-14T06:50:19.087Z,-0.10
2022-12-14T06:52:26.500Z,-0.20
2022-12-14T06:54:28.767Z,-0.20
2022-12-14T06:56:30.373Z,-0.20
2022-12-14T06:58:32.638Z,-0.30
2022-12-14T07:00:34.646Z,-0.30
2022-12-14T07:02:36.381Z,-0.30
2022-12-14T07:04:38.080Z,-0.20
2022-12-14T07:06:40.877Z,-0.20
2022-12-14T07:08:42.532Z,-0.30
2022-12-14T07:10:44.126Z,-0.20
2022-12-14T07:12:45.776Z,-0.10
2022-12-14T07:14:47.386Z,-0.20
2022-12-14T07:16:49.387Z,-0.40
2022-12-14T07:18:51.672Z,-0.50
2022-12-14T07:21:00.746Z,-0.40
2022-12-14T07:23:02.351Z,-0.60
2022-12-14T07:25:04.084Z,-0.50
2022-12-14T07:27:05.978Z,-0.30
2022-12-14T07:29:09.184Z,-0.30
2022-12-14T07:31:12.827Z,-0.10
2022-12-14T07:33:14.432Z,-0.10
2022-12-14T07:35:16.893Z,-0.10
2022-12-14T07:37:18.699Z,0.00
2022-12-14T07:39:20.951Z,0.00
2022-12-14T07:41:27.878Z,0.00
2022-12-14T07:43:29.863Z,0.00
2022-12-14T07:45:31.834Z,0.00
2022-12-14T07:47:33.422Z,0.00
2022-12-14T07:49:35.045Z,0.00
2022-12-14T07:51:37.586Z,-0.10
2022-12-14T07:53:39.794Z,0.00
2022-12-14T07:55:41.373Z,0.00
2022-12-14T07:57:43.020Z,0.00
2022-12-14T07:59:44.713Z,0.00
2022-12-14T08:01:46.397Z,-0.10
2022-12-14T08:04:14.350Z,0.00
2022-12-14T08:06:16.828Z,0.10
2022-12-14T08:08:18.589Z,0.20
2022-12-14T08:10:20.294Z,0.20
2022-12-14T08:12:21.937Z,0.20
2022-12-14T08:14:23.514Z,0.20
2022-12-14T08:16:25.467Z,0.20
2022-12-14T08:18:27.163Z,0.30
2022-12-14T08:20:28.843Z,0.30
2022-12-14T08:22:30.473Z,0.30
2022-12-14T08:24:32.057Z,0.30
2022-12-14T08:26:35.929Z,0.30
2022-12-14T08:28:37.787Z,0.30
2022-12-14T08:30:40.396Z,0.20
2022-12-14T08:32:42.045Z,0.20
2022-12-14T08:34:43.682Z,0.40
2022-12-14T08:36:45.314Z,0.40
2022-12-14T08:38:51.473Z,0.40
2022-12-14T08:40:53.068Z,0.40
2022-12-14T08:42:54.729Z,0.40
2022-12-14T08:44:56.401Z,0.40
2022-12-14T08:46:58.060Z,0.30
2022-12-14T08:49:00.001Z,0.40
2022-12-14T08:51:02.585Z,0.40
2022-12-14T08:53:04.259Z,0.40
2022-12-14T08:55:06.415Z,0.30
2022-12-14T08:57:08.105Z,0.30
2022-12-14T08:59:19.802Z,0.20
2022-12-14T09:01:33.765Z,0.30
2022-12-14T09:03:35.797Z,0.20
2022-12-14T09:05:38.463Z,0.20
2022-12-14T09:07:40.079Z,0.30
2022-12-14T09:09:42.201Z,0.40
2022-12-14T09:11:44.410Z,0.30
2022-12-14T09:13:46.699Z,0.30
2022-12-14T09:15:56.125Z,0.50
2022-12-14T09:17:57.921Z,0.50
2022-12-14T09:19:59.523Z,0.50
2022-12-14T09:22:01.225Z,0.80
2022-12-14T09:24:03.097Z,0.70
2022-12-14T09:26:12.307Z,0.60
2022-12-14T09:28:14.403Z,0.50
2022-12-14T09:30:16.274Z,0.70
2022-12-14T09:32:18.678Z,0.60
2022-12-14T09:34:20.981Z,0.60
2022-12-14T09:36:23.615Z,0.50
2022-12-14T09:38:25.624Z,0.40
2022-12-14T09:40:29.296Z,0.50
2022-12-14T09:42:39.814Z,0.50
2022-12-14T09:44:49.106Z,0.50
2022-12-14T09:47:02.831Z,0.40
2022-12-14T09:49:04.819Z,0.60
2022-12-14T09:51:07.985Z,0.60
2022-12-14T09:53:12.963Z,0.60
2022-12-14T09:55:26.325Z,0.50
2022-12-14T09:57:36.804Z,0.40
2022-12-14T09:59:38.510Z,0.40
2022-12-14T10:02:13.882Z,0.40
2022-12-14T10:04:14.092Z,0.40
2022-12-14T10:06:29.014Z,0.40
2022-12-14T10:08:37.927Z,0.40
2022-12-14T10:10:42.411Z,0.40
2022-12-14T10:12:53.308Z,0.50
2022-12-14T10:15:02.004Z,0.40
2022-12-14T10:17:17.374Z,0.40
2022-12-14T10:19:26.003Z,0.50
2022-12-14T10:21:39.624Z,0.40
2022-12-14T10:24:01.550Z,0.40
2022-12-14T10:26:07.630Z,0.50
2022-12-14T10:28:17.497Z,0.50
2022-12-14T10:30:21.207Z,0.50
2022-12-14T10:32:43.179Z,0.40
2022-12-14T10:34:44.810Z,0.30
2022-12-14T10:37:09.589Z,0.30
2022-12-14T10:39:30.436Z,0.30
2022-12-14T10:41:54.890Z,0.20
2022-12-14T10:44:05.315Z,0.30
2022-12-14T10:46:25.572Z,0.20
2022-12-14T10:48:33.787Z,0.40
2022-12-14T10:50:35.662Z,0.40
2022-12-14T10:52:40.395Z,0.40
2022-12-14T10:54:48.198Z,0.30
2022-12-14T10:56:50.596Z,0.40
2022-12-14T10:59:10.953Z,0.50
2022-12-14T11:01:13.660Z,0.50
2022-12-14T11:03:15.743Z,0.60
2022-12-14T11:05:17.473Z,0.70
2022-12-14T11:07:20.885Z,0.60
2022-12-14T11:09:23.771Z,0.70
2022-12-14T11:11:25.973Z,0.60
2022-12-14T11:13:27.755Z,0.50
2022-12-14T11:15:29.649Z,0.50
2022-12-14T11:17:31.439Z,0.50
2022-12-14T11:19:33.248Z,0.40
2022-12-14T11:21:37.134Z,0.50
2022-12-14T11:23:43.741Z,0.50
2022-12-14T11:25:46.707Z,0.50
2022-12-14T11:27:50.023Z,0.50
2022-12-14T11:29:51.945Z,0.60
2022-12-14T11:31:53.751Z,0.60
2022-12-14T11:33:56.905Z,0.70
2022-12-14T11:35:58.578Z,0.80
2022-12-14T11:38:00.497Z,0.80
2022-12-14T11:40:04.845Z,0.70
2022-12-14T11:42:06.788Z,0.70
2022-12-14T11:44:26.261Z,0.70
2022-12-14T11:47:00.424Z,0.70
2022-12-14T11:49:02.100Z,0.80
2022-12-14T11:51:13.438Z,0.80
2022-12-14T11:53:16.358Z,0.80
2022-12-14T11:55:26.543Z,0.90
2022-12-14T11:57:35.886Z,0.90
2022-12-14T11:59:47.800Z,0.90
2022-12-14T12:01:49.637Z,0.80
2022-12-14T12:03:53.027Z,0.70
2022-12-14T12:05:59.747Z,0.80
2022-12-14T12:08:07.319Z,0.70
2022-12-14T12:10:12.120Z,0.80
2022-12-14T12:12:17.736Z,0.80
2022-12-14T12:14:22.202Z,0.90
2022-12-14T12:16:25.505Z,1.00
2022-12-14T12:18:50.199Z,1.10
2022-12-14T12:20:54.054Z,1.10
2022-12-14T12:22:58.597Z,1.20
2022-12-14T12:27:26.744Z,1.30
2022-12-14T12:29:37.400Z,1.30
2022-12-14T12:31:44.736Z,1.10
2022-12-14T12:33:52.283Z,1.10
2022-12-14T12:35:55.071Z,1.10
2022-12-14T12:37:59.212Z,0.80
2022-12-14T12:40:03.520Z,0.80
2022-12-14T12:42:09.120Z,0.70
2022-12-14T12:44:13.838Z,0.80
2022-12-14T12:46:20.271Z,0.80
2022-12-14T12:48:29.331Z,0.70
2022-12-14T12:50:35.535Z,0.70
2022-12-14T12:52:47.179Z,0.70
2022-12-14T12:54:51.673Z,0.80
2022-12-14T12:56:56.025Z,0.90
2022-12-14T12:59:00.005Z,1.00
2022-12-14T13:01:05.129Z,1.00
2022-12-14T13:03:13.102Z,1.00
2022-12-14T13:05:45.140Z,1.00
2022-12-14T13:07:52.030Z,1.00
2022-12-14T13:10:03.439Z,1.10
2022-12-14T13:12:11.352Z,1.00
2022-12-14T13:14:28.170Z,0.90
2022-12-14T13:16:34.452Z,0.80
2022-12-14T13:18:59.750Z,0.80
2022-12-14T13:21:02.934Z,0.80
2022-12-14T13:23:36.070Z,0.90
2022-12-14T13:25:35.621Z,0.90
2022-12-14T13:27:49.494Z,0.90
2022-12-14T13:30:09.403Z,0.80
2022-12-14T13:32:10.972Z,0.90
2022-12-14T13:34:31.795Z,0.80
2022-12-14T13:36:39.299Z,0.70
2022-12-14T13:38:58.943Z,0.80
2022-12-14T13:41:09.551Z,0.80
2022-12-14T13:43:17.307Z,0.80
2022-12-14T13:45:22.946Z,0.80
2022-12-14T13:47:39.422Z,0.80
2022-12-14T13:49:42.407Z,0.80
2022-12-14T13:55:34.582Z,0.90
2022-12-14T13:57:36.295Z,0.90
2022-12-14T13:59:42.544Z,0.80
2022-12-14T14:01:46.846Z,0.80
2022-12-14T14:03:48.741Z,0.80
2022-12-14T14:05:56.183Z,0.90
2022-12-14T14:07:57.789Z,1.00
2022-12-14T14:10:01.075Z,1.00
2022-12-14T14:12:25.464Z,0.90
2022-12-14T14:14:42.219Z,0.80
2022-12-14T14:16:45.796Z,0.90
2022-12-14T14:19:11.332Z,0.80
2022-12-14T14:21:12.967Z,0.90
2022-12-14T14:23:14.657Z,0.90
2022-12-14T14:25:34.185Z,0.80
2022-12-14T14:27:39.988Z,0.70
2022-12-14T14:29:46.138Z,0.60
2022-12-14T14:31:47.872Z,0.60
2022-12-14T14:33:55.149Z,0.50
2022-12-14T14:36:11.793Z,0.50
2022-12-14T14:38:25.767Z,0.60
2022-12-14T14:40:44.259Z,0.70
2022-12-14T14:42:57.585Z,0.70
2022-12-14T14:45:04.087Z,0.60
2022-12-14T14:47:13.750Z,0.50
2022-12-14T14:49:24.510Z,0.40
2022-12-14T14:51:27.792Z,0.30
2022-12-14T14:53:33.957Z,0.40
2022-12-14T14:55:52.476Z,0.50
2022-12-14T14:57:55.230Z,0.60
2022-12-14T15:00:01.432Z,0.60
2022-12-14T15:02:04.439Z,0.50
2022-12-14T15:04:10.569Z,0.50
2022-12-14T15:06:33.441Z,0.40
2022-12-14T15:08:38.880Z,0.30
2022-12-14T15:10:42.676Z,0.30
2022-12-14T15:12:55.058Z,0.40
2022-12-14T15:15:00.274Z,0.30
2022-12-14T15:17:12.096Z,0.20
2022-12-14T15:19:20.694Z,0.30
2022-12-14T15:21:22.423Z,0.20
2022-12-14T15:23:24.324Z,0.10
2022-12-14T15:25:27.779Z,0.10
2022-12-14T15:27:34.830Z,0.10
2022-12-14T15:29:36.472Z,0.20
2022-12-14T15:31:40.285Z,0.20
2022-12-14T15:33:42.832Z,0.00
2022-12-14T15:35:46.850Z,0.00
2022-12-14T15:37:58.035Z,0.10
2022-12-14T15:40:04.113Z,0.00
2022-12-14T15:42:16.895Z,0.00
2022-12-14T15:44:21.289Z,0.00
2022-12-14T15:46:26.009Z,0.00
2022-12-14T15:48:30.959Z,0.10
2022-12-14T15:50:32.773Z,0.00
2022-12-14T15:52:34.693Z,0.10
2022-12-14T15:54:36.670Z,0.10
2022-12-14T15:56:39.732Z,0.10
2022-12-14T15:58:43.024Z,0.20
2022-12-14T16:00:46.712Z,0.20
2022-12-14T16:02:48.794Z,0.10
2022-12-14T16:04:50.952Z,0.10
2022-12-14T16:06:57.041Z,0.10
2022-12-14T16:09:22.083Z,0.00
2022-12-14T16:11:31.196Z,0.00
2022-12-14T16:13:34.341Z,0.10
2022-12-14T16:15:36.141Z,0.00
2022-12-14T16:17:37.989Z,0.00
2022-12-14T16:19:58.286Z,0.00
2022-12-14T16:22:10.027Z,0.00
2022-12-14T16:24:37.956Z,0.00
2022-12-14T16:26:39.761Z,0.00
2022-12-14T16:28:41.491Z,0.00
2022-12-14T16:30:52.630Z,-0.10
2022-12-14T16:33:27.182Z,-0.10
2022-12-14T16:35:29.505Z,-0.10
2022-12-14T16:37:33.103Z,-0.10
2022-12-14T16:39:39.743Z,-0.20
2022-12-14T16:41:58.421Z,-0.20
2022-12-14T16:44:00.556Z,-0.20
2022-12-14T16:46:05.287Z,-0.20
2022-12-14T16:48:13.168Z,-0.10
2022-12-14T16:50:40.142Z,-0.20
2022-12-14T16:52:44.019Z,-0.20
2022-12-14T16:55:05.654Z,-0.30
2022-12-14T16:57:17.114Z,-0.20
2022-12-14T16:59:39.842Z,-0.20
2022-12-14T17:01:43.995Z,-0.10
2022-12-14T17:03:51.306Z,-0.20
2022-12-14T17:05:55.031Z,-0.10
2022-12-14T17:07:57.081Z,-0.10
2022-12-14T17:09:58.925Z,-0.30
2022-12-14T17:12:02.625Z,-0.10
2022-12-14T17:14:04.226Z,0.00
2022-12-14T17:16:07.207Z,0.00
2022-12-14T17:18:09.751Z,-0.10
2022-12-14T17:20:18.460Z,-0.20
2022-12-14T17:22:24.249Z,-0.30
2022-12-14T17:24:26.349Z,-0.20
2022-12-14T17:26:29.516Z,-0.30
2022-12-14T17:28:34.597Z,-0.30
2022-12-14T17:30:36.812Z,-0.30
2022-12-14T17:32:38.549Z,-0.20
2022-12-14T17:34:40.219Z,-0.20
2022-12-14T17:36:42.236Z,-0.10
2022-12-14T17:38:44.155Z,-0.10
2022-12-14T17:40:46.803Z,-0.30
2022-12-14T17:42:52.684Z,-0.20
2022-12-14T17:44:59.639Z,-0.30
2022-12-14T17:47:07.249Z,-0.30
2022-12-14T17:49:19.702Z,-0.40
2022-12-14T17:51:34.294Z,-0.40
2022-12-14T17:53:39.107Z,-0.30
2022-12-14T17:55:41.262Z,-0.40
2022-12-14T18:00:27.476Z,-0.40
2022-12-14T18:02:36.976Z,-0.40
2022-12-14T18:07:36.095Z,-0.20
2022-12-14T18:09:46.436Z,-0.20
2022-12-14T18:12:21.022Z,-0.30
2022-12-14T18:14:37.382Z,-0.40
2022-12-14T18:17:11.256Z,-0.30
2022-12-14T18:19:17.852Z,-0.40
2022-12-14T18:21:31.006Z,-0.30
2022-12-14T18:23:33.176Z,-0.30
2022-12-14T18:25:50.829Z,-0.30
2022-12-14T18:28:04.155Z,-0.30
2022-12-14T18:30:09.115Z,-0.30
2022-12-14T18:32:14.696Z,-0.50
2022-12-14T18:34:18.711Z,-0.40
2022-12-14T18:36:32.650Z,-0.50
2022-12-14T18:38:40.358Z,-0.40
2022-12-14T18:40:54.020Z,-0.40
2022-12-14T18:43:02.998Z,-0.30
2022-12-14T18:45:12.067Z,-0.20
2022-12-14T18:47:40.521Z,-0.40
2022-12-14T18:49:42.691Z,-0.40
2022-12-14T18:51:50.185Z,-0.40
2022-12-14T18:53:52.886Z,-0.40
2022-12-14T18:55:58.521Z,-0.30
2022-12-14T18:58:06.674Z,-0.10
2022-12-14T19:00:19.060Z,-0.20
2022-12-14T19:02:49.869Z,-0.20
2022-12-14T19:04:57.619Z,-0.30
2022-12-14T19:06:59.341Z,-0.40
2022-12-14T19:09:01.113Z,-0.30
2022-12-14T19:11:08.219Z,-0.40
2022-12-14T19:13:32.854Z,-0.30
2022-12-14T19:15:58.276Z,0.20
2022-12-14T19:18:03.384Z,0.30
2022-12-14T19:20:05.301Z,0.40
2022-12-14T19:22:07.229Z,0.30
2022-12-14T19:24:08.884Z,0.10
2022-12-14T19:26:13.355Z,-0.10
2022-12-14T19:28:32.886Z,-0.30
2022-12-14T19:30:45.229Z,-0.30
2022-12-14T19:33:07.494Z,-0.20
2022-12-14T19:35:15.476Z,-0.30
2022-12-14T19:37:21.651Z,-0.30
2022-12-14T19:39:23.289Z,-0.30
2022-12-14T19:41:30.031Z,-0.30
2022-12-14T19:43:44.092Z,-0.30
2022-12-14T19:45:48.404Z,-0.30
2022-12-14T19:47:50.082Z,-0.30
2022-12-14T19:50:03.397Z,-0.40
2022-12-14T19:52:09.188Z,-0.30
2022-12-14T19:54:18.420Z,-0.30
2022-12-14T19:56:20.151Z,-0.40
2022-12-14T19:58:22.461Z,-0.40
2022-12-14T20:00:24.152Z,-0.50
2022-12-14T20:02:26.477Z,-0.50
2022-12-14T20:04:43.923Z,-0.50
2022-12-14T20:06:45.797Z,-0.50
2022-12-14T20:08:59.429Z,-0.50
2022-12-14T20:11:34.167Z,-0.50
2022-12-14T20:13:40.027Z,-0.40
2022-12-14T20:15:47.370Z,-0.40
2022-12-14T20:17:50.237Z,-0.40
2022-12-14T20:19:57.488Z,-0.40
2022-12-14T20:21:59.157Z,-0.40
2022-12-14T20:24:07.384Z,-0.50
2022-12-14T20:26:13.856Z,-0.50
2022-12-14T20:28:48.310Z,-0.40
2022-12-14T20:31:00.239Z,-0.30
2022-12-14T20:33:29.882Z,-0.30
2022-12-14T20:35:52.613Z,-0.30
2022-12-14T20:37:57.245Z,-0.40
2022-12-14T20:39:58.935Z,-0.50
2022-12-14T20:42:07.011Z,-0.50
2022-12-14T20:44:11.953Z,-0.50
2022-12-14T20:46:24.056Z,-0.40
2022-12-14T20:48:27.110Z,-0.50
2022-12-14T20:50:32.697Z,-0.40
2022-12-14T20:52:44.421Z,-0.40
2022-12-14T20:54:54.618Z,-0.20
2022-12-14T20:57:02.076Z,-0.30
2022-12-14T20:59:07.079Z,-0.40
2022-12-14T21:01:09.429Z,-0.30
2022-12-14T21:03:11.243Z,-0.20
2022-12-14T21:05:25.795Z,-0.10
2022-12-14T21:07:33.796Z,-0.10
2022-12-14T21:09:48.663Z,-0.10
2022-12-14T21:12:13.866Z,-0.10
2022-12-14T21:14:16.011Z,-0.10
2022-12-14T21:16:20.557Z,-0.30
2022-12-14T21:18:27.419Z,-0.40
2022-12-14T21:20:29.142Z,-0.40
2022-12-14T21:22:43.856Z,-0.20
2022-12-14T21:25:05.172Z,-0.20
2022-12-14T21:27:14.910Z,-0.20
2022-12-14T21:29:24.340Z,-0.20
2022-12-14T21:31:38.372Z,-0.20
2022-12-14T21:33:49.838Z,-0.20
2022-12-14T21:36:00.732Z,-0.20
2022-12-14T21:38:02.445Z,-0.20
2022-12-14T21:40:04.680Z,-0.20
2022-12-14T21:42:15.824Z,-0.30
2022-12-14T21:44:17.580Z,-0.20
2022-12-14T21:46:19.541Z,-0.20
2022-12-14T21:48:21.455Z,-0.20
2022-12-14T21:50:23.041Z,-0.30
2022-12-14T21:52:25.957Z,-0.30
2022-12-14T21:54:28.459Z,-0.30
2022-12-14T21:56:56.133Z,-0.30
2022-12-14T21:59:00.222Z,-0.30
2022-12-14T22:01:26.906Z,-0.40
2022-12-14T22:03:28.888Z,-0.30
2022-12-14T22:05:31.006Z,-0.30
2022-12-14T22:07:33.685Z,-0.40
2022-12-14T22:09:35.401Z,-0.40
2022-12-14T22:11:37.024Z,-0.40
2022-12-14T22:13:38.732Z,-0.40
2022-12-14T22:15:40.323Z,-0.30
2022-12-14T22:17:41.944Z,-0.30
2022-12-14T22:19:43.595Z,-0.30
2022-12-14T22:21:45.378Z,-0.30
2022-12-14T22:23:52.759Z,-0.20
2022-12-14T22:26:02.235Z,-0.10
2022-12-14T22:28:03.938Z,-0.10
2022-12-14T22:30:05.848Z,-0.20
2022-12-14T22:32:10.299Z,-0.20
2022-12-14T22:34:15.535Z,-0.20
2022-12-14T22:36:17.555Z,-0.20
2022-12-14T22:38:19.192Z,-0.20
2022-12-14T22:40:25.922Z,-0.30
2022-12-14T22:42:30.797Z,-0.30
2022-12-14T22:44:52.627Z,-0.40
2022-12-14T22:49:39.776Z,-0.30
2022-12-14T22:51:41.539Z,-0.50
2022-12-14T22:53:43.435Z,-0.40
2022-12-14T22:55:51.161Z,-0.50
2022-12-14T22:57:53.681Z,-0.50
2022-12-14T23:00:01.308Z,-0.50
2022-12-14T23:02:03.199Z,-0.40
2022-12-14T23:04:06.196Z,-0.40
2022-12-14T23:06:15.428Z,-0.60
2022-12-14T23:08:17.087Z,-0.60
2022-12-14T23:10:38.031Z,-0.50
2022-12-14T23:12:58.112Z,-0.50
2022-12-14T23:15:18.234Z,-0.50
2022-12-14T23:17:38.335Z,-0.60
2022-12-14T23:20:02.795Z,-0.50
2022-12-14T23:22:28.137Z,-0.50
2022-12-14T23:24:48.283Z,-0.40
2022-12-14T23:27:09.879Z,-0.50
2022-12-14T23:29:30.569Z,-0.30
2022-12-14T23:31:50.780Z,-0.40
2022-12-14T23:34:10.806Z,-0.40
2022-12-14T23:36:31.270Z,-0.40
2022-12-14T23:38:51.304Z,-0.30
2022-12-14T23:41:16.558Z,-0.30
2022-12-14T23:43:36.690Z,-0.30
2022-12-14T23:48:37.175Z,-0.20
2022-12-14T23:50:57.623Z,-0.20
2022-12-14T23:53:22.827Z,-0.20
2022-12-14T23:55:46.126Z,-0.30
2022-12-14T23:58:09.280Z,-0.30
